sensor_id;sensor_type;location;lat;lon;timestamp;P1;durP1;ratioP1;P2;durP2;ratioP2
52816;SDS011;38687;43.330;21.924;2023-02-01T00:00:30;37.33;;;20.90;;
52816;SDS011;38687;43.330;21.924;2023-02-01T00:02:58;37.90;;;21.65;;
52816;SDS011;38687;43.330;21.924;2023-02-01T00:05:23;63.55;;;33.03;;
52816;SDS011;38687;43.330;21.924;2023-02-01T00:07:49;89.05;;;42.80;;
52816;SDS011;38687;43.330;21.924;2023-02-01T00:10:14;133.40;;;66.72;;
52816;SDS011;38687;43.330;21.924;2023-02-01T00:12:39;66.90;;;37.05;;
52816;SDS011;38687;43.330;21.924;2023-02-01T00:15:05;110.65;;;45.53;;
52816;SDS011;38687;43.330;21.924;2023-02-01T00:17:30;103.63;;;48.08;;
52816;SDS011;38687;43.330;21.924;2023-02-01T00:19:55;71.45;;;38.67;;
52816;SDS011;38687;43.330;21.924;2023-02-01T00:22:21;65.68;;;39.45;;
52816;SDS011;38687;43.330;21.924;2023-02-01T00:24:46;64.35;;;34.72;;
52816;SDS011;38687;43.330;21.924;2023-02-01T00:27:14;106.07;;;47.88;;
52816;SDS011;38687;43.330;21.924;2023-02-01T00:29:43;114.53;;;56.55;;
52816;SDS011;38687;43.330;21.924;2023-02-01T00:32:09;116.63;;;50.65;;
52816;SDS011;38687;43.330;21.924;2023-02-01T00:34:34;89.00;;;41.88;;
52816;SDS011;38687;43.330;21.924;2023-02-01T00:37:00;67.75;;;32.75;;
52816;SDS011;38687;43.330;21.924;2023-02-01T00:39:25;80.15;;;38.88;;
52816;SDS011;38687;43.330;21.924;2023-02-01T00:41:50;64.07;;;33.10;;
52816;SDS011;38687;43.330;21.924;2023-02-01T00:44:16;43.42;;;24.42;;
52816;SDS011;38687;43.330;21.924;2023-02-01T00:46:41;56.20;;;28.40;;
52816;SDS011;38687;43.330;21.924;2023-02-01T00:49:09;51.80;;;26.95;;
52816;SDS011;38687;43.330;21.924;2023-02-01T00:51:35;49.80;;;26.35;;
52816;SDS011;38687;43.330;21.924;2023-02-01T00:54:01;49.33;;;24.85;;
52816;SDS011;38687;43.330;21.924;2023-02-01T00:56:29;44.85;;;24.45;;
52816;SDS011;38687;43.330;21.924;2023-02-01T00:58:55;47.03;;;24.83;;
52816;SDS011;38687;43.330;21.924;2023-02-01T01:01:24;54.17;;;30.95;;
52816;SDS011;38687;43.330;21.924;2023-02-01T01:03:51;70.95;;;38.03;;
52816;SDS011;38687;43.330;21.924;2023-02-01T01:06:18;46.33;;;26.35;;
52816;SDS011;38687;43.330;21.924;2023-02-01T01:08:44;52.28;;;28.15;;
52816;SDS011;38687;43.330;21.924;2023-02-01T01:11:20;48.08;;;26.58;;
52816;SDS011;38687;43.330;21.924;2023-02-01T01:16:11;43.33;;;23.43;;
52816;SDS011;38687;43.330;21.924;2023-02-01T01:18:36;51.67;;;25.20;;
52816;SDS011;38687;43.330;21.924;2023-02-01T01:21:05;61.22;;;31.80;;
52816;SDS011;38687;43.330;21.924;2023-02-01T01:23:31;46.38;;;23.65;;
52816;SDS011;38687;43.330;21.924;2023-02-01T01:26:00;27.58;;;17.05;;
52816;SDS011;38687;43.330;21.924;2023-02-01T01:28:26;51.90;;;25.98;;
52816;SDS011;38687;43.330;21.924;2023-02-01T01:30:51;132.63;;;60.45;;
52816;SDS011;38687;43.330;21.924;2023-02-01T01:33:16;114.82;;;58.72;;
52816;SDS011;38687;43.330;21.924;2023-02-01T01:35:44;50.92;;;31.30;;
52816;SDS011;38687;43.330;21.924;2023-02-01T01:38:10;54.10;;;29.27;;
52816;SDS011;38687;43.330;21.924;2023-02-01T01:40:39;149.90;;;76.72;;
52816;SDS011;38687;43.330;21.924;2023-02-01T01:43:15;28.30;;;16.60;;
52816;SDS011;38687;43.330;21.924;2023-02-01T01:50:38;52.20;;;28.83;;
52816;SDS011;38687;43.330;21.924;2023-02-01T01:53:05;55.60;;;28.75;;
52816;SDS011;38687;43.330;21.924;2023-02-01T01:55:35;47.75;;;26.90;;
52816;SDS011;38687;43.330;21.924;2023-02-01T01:58:03;47.15;;;26.67;;
52816;SDS011;38687;43.330;21.924;2023-02-01T02:00:32;52.65;;;29.15;;
52816;SDS011;38687;43.330;21.924;2023-02-01T02:03:03;48.50;;;26.77;;
52816;SDS011;38687;43.330;21.924;2023-02-01T02:05:30;52.70;;;27.27;;
52816;SDS011;38687;43.330;21.924;2023-02-01T02:07:57;48.92;;;28.25;;
52816;SDS011;38687;43.330;21.924;2023-02-01T02:10:23;55.35;;;29.00;;
52816;SDS011;38687;43.330;21.924;2023-02-01T02:13:08;51.78;;;28.02;;
52816;SDS011;38687;43.330;21.924;2023-02-01T02:15:34;45.75;;;26.83;;
52816;SDS011;38687;43.330;21.924;2023-02-01T02:18:04;48.85;;;26.67;;
52816;SDS011;38687;43.330;21.924;2023-02-01T02:20:45;37.40;;;22.60;;
52816;SDS011;38687;43.330;21.924;2023-02-01T02:25:58;40.78;;;24.27;;
52816;SDS011;38687;43.330;21.924;2023-02-01T02:33:22;38.05;;;25.95;;
52816;SDS011;38687;43.330;21.924;2023-02-01T02:43:57;36.25;;;22.08;;
52816;SDS011;38687;43.330;21.924;2023-02-01T02:46:40;35.67;;;22.05;;
52816;SDS011;38687;43.330;21.924;2023-02-01T02:49:29;46.28;;;24.05;;
52816;SDS011;38687;43.330;21.924;2023-02-01T02:51:59;35.55;;;22.17;;
52816;SDS011;38687;43.330;21.924;2023-02-01T02:54:46;40.78;;;22.77;;
52816;SDS011;38687;43.330;21.924;2023-02-01T02:57:13;40.38;;;22.50;;
52816;SDS011;38687;43.330;21.924;2023-02-01T02:59:58;40.03;;;21.33;;
52816;SDS011;38687;43.330;21.924;2023-02-01T03:02:44;36.58;;;21.27;;
52816;SDS011;38687;43.330;21.924;2023-02-01T03:05:32;33.65;;;20.80;;
52816;SDS011;38687;43.330;21.924;2023-02-01T03:08:03;35.45;;;21.25;;
52816;SDS011;38687;43.330;21.924;2023-02-01T03:10:40;40.75;;;24.63;;
52816;SDS011;38687;43.330;21.924;2023-02-01T03:13:14;44.72;;;25.48;;
52816;SDS011;38687;43.330;21.924;2023-02-01T03:18:11;45.55;;;23.83;;
52816;SDS011;38687;43.330;21.924;2023-02-01T03:20:38;50.78;;;28.75;;
52816;SDS011;38687;43.330;21.924;2023-02-01T03:23:05;55.33;;;30.17;;
52816;SDS011;38687;43.330;21.924;2023-02-01T03:25:31;53.03;;;28.80;;
52816;SDS011;38687;43.330;21.924;2023-02-01T03:28:02;53.63;;;30.30;;
52816;SDS011;38687;43.330;21.924;2023-02-01T03:30:34;49.75;;;30.67;;
52816;SDS011;38687;43.330;21.924;2023-02-01T03:33:01;50.17;;;28.30;;
52816;SDS011;38687;43.330;21.924;2023-02-01T03:35:32;49.15;;;26.33;;
52816;SDS011;38687;43.330;21.924;2023-02-01T03:38:11;43.45;;;21.85;;
52816;SDS011;38687;43.330;21.924;2023-02-01T03:40:38;36.63;;;22.70;;
52816;SDS011;38687;43.330;21.924;2023-02-01T03:43:04;33.40;;;19.85;;
52816;SDS011;38687;43.330;21.924;2023-02-01T03:45:36;31.65;;;19.50;;
52816;SDS011;38687;43.330;21.924;2023-02-01T03:48:05;30.00;;;17.98;;
52816;SDS011;38687;43.330;21.924;2023-02-01T03:50:31;28.50;;;18.15;;
52816;SDS011;38687;43.330;21.924;2023-02-01T03:53:08;27.02;;;16.23;;
52816;SDS011;38687;43.330;21.924;2023-02-01T03:55:35;26.05;;;16.20;;
52816;SDS011;38687;43.330;21.924;2023-02-01T03:58:04;27.42;;;16.75;;
52816;SDS011;38687;43.330;21.924;2023-02-01T04:00:31;25.98;;;16.13;;
52816;SDS011;38687;43.330;21.924;2023-02-01T04:02:56;28.02;;;15.50;;
52816;SDS011;38687;43.330;21.924;2023-02-01T04:05:22;33.20;;;16.60;;
52816;SDS011;38687;43.330;21.924;2023-02-01T04:07:47;47.63;;;25.33;;
52816;SDS011;38687;43.330;21.924;2023-02-01T04:10:12;28.60;;;18.58;;
52816;SDS011;38687;43.330;21.924;2023-02-01T04:12:38;33.03;;;19.90;;
52816;SDS011;38687;43.330;21.924;2023-02-01T04:15:04;35.03;;;20.20;;
52816;SDS011;38687;43.330;21.924;2023-02-01T04:17:29;34.63;;;19.90;;
52816;SDS011;38687;43.330;21.924;2023-02-01T04:19:55;37.92;;;21.38;;
52816;SDS011;38687;43.330;21.924;2023-02-01T04:22:20;33.47;;;21.08;;
52816;SDS011;38687;43.330;21.924;2023-02-01T04:24:45;34.15;;;20.80;;
52816;SDS011;38687;43.330;21.924;2023-02-01T04:27:10;43.63;;;23.65;;
52816;SDS011;38687;43.330;21.924;2023-02-01T04:29:38;38.13;;;21.40;;
52816;SDS011;38687;43.330;21.924;2023-02-01T04:32:04;38.25;;;19.77;;
52816;SDS011;38687;43.330;21.924;2023-02-01T04:34:29;35.08;;;20.30;;
52816;SDS011;38687;43.330;21.924;2023-02-01T04:36:54;33.28;;;18.95;;
52816;SDS011;38687;43.330;21.924;2023-02-01T04:39:19;29.00;;;17.65;;
52816;SDS011;38687;43.330;21.924;2023-02-01T04:41:45;28.58;;;15.93;;
52816;SDS011;38687;43.330;21.924;2023-02-01T04:44:17;26.10;;;16.38;;
52816;SDS011;38687;43.330;21.924;2023-02-01T04:46:42;26.23;;;15.55;;
52816;SDS011;38687;43.330;21.924;2023-02-01T04:49:08;31.35;;;16.15;;
52816;SDS011;38687;43.330;21.924;2023-02-01T04:51:34;27.40;;;15.35;;
52816;SDS011;38687;43.330;21.924;2023-02-01T04:53:59;24.55;;;14.70;;
52816;SDS011;38687;43.330;21.924;2023-02-01T04:56:25;28.60;;;14.63;;
52816;SDS011;38687;43.330;21.924;2023-02-01T04:58:50;24.48;;;14.55;;
52816;SDS011;38687;43.330;21.924;2023-02-01T05:01:15;21.55;;;13.75;;
52816;SDS011;38687;43.330;21.924;2023-02-01T05:03:40;18.63;;;12.38;;
52816;SDS011;38687;43.330;21.924;2023-02-01T05:06:05;18.67;;;12.02;;
52816;SDS011;38687;43.330;21.924;2023-02-01T05:08:34;21.42;;;12.15;;
52816;SDS011;38687;43.330;21.924;2023-02-01T05:10:59;26.92;;;15.35;;
52816;SDS011;38687;43.330;21.924;2023-02-01T05:13:27;27.85;;;15.55;;
52816;SDS011;38687;43.330;21.924;2023-02-01T05:16:11;32.22;;;19.05;;
52816;SDS011;38687;43.330;21.924;2023-02-01T05:18:36;41.17;;;26.27;;
52816;SDS011;38687;43.330;21.924;2023-02-01T05:21:01;35.33;;;21.23;;
52816;SDS011;38687;43.330;21.924;2023-02-01T05:23:27;38.00;;;22.15;;
52816;SDS011;38687;43.330;21.924;2023-02-01T05:26:01;37.72;;;22.45;;
52816;SDS011;38687;43.330;21.924;2023-02-01T05:28:27;33.95;;;20.75;;
52816;SDS011;38687;43.330;21.924;2023-02-01T05:30:52;42.15;;;24.73;;
52816;SDS011;38687;43.330;21.924;2023-02-01T05:33:17;25.33;;;15.15;;
52816;SDS011;38687;43.330;21.924;2023-02-01T05:35:42;46.15;;;24.85;;
52816;SDS011;38687;43.330;21.924;2023-02-01T05:38:08;45.28;;;22.33;;
52816;SDS011;38687;43.330;21.924;2023-02-01T05:40:34;36.72;;;23.27;;
52816;SDS011;38687;43.330;21.924;2023-02-01T05:42:59;45.72;;;24.85;;
52816;SDS011;38687;43.330;21.924;2023-02-01T05:45:24;40.20;;;24.00;;
52816;SDS011;38687;43.330;21.924;2023-02-01T05:47:49;53.88;;;29.80;;
52816;SDS011;38687;43.330;21.924;2023-02-01T05:50:15;97.60;;;48.67;;
52816;SDS011;38687;43.330;21.924;2023-02-01T05:52:41;85.93;;;44.58;;
52816;SDS011;38687;43.330;21.924;2023-02-01T05:55:06;62.80;;;35.60;;
52816;SDS011;38687;43.330;21.924;2023-02-01T05:57:32;66.60;;;35.85;;
52816;SDS011;38687;43.330;21.924;2023-02-01T05:59:57;66.88;;;37.25;;
52816;SDS011;38687;43.330;21.924;2023-02-01T06:02:22;64.47;;;35.40;;
52816;SDS011;38687;43.330;21.924;2023-02-01T06:04:49;51.25;;;29.15;;
52816;SDS011;38687;43.330;21.924;2023-02-01T06:07:14;62.80;;;33.75;;
52816;SDS011;38687;43.330;21.924;2023-02-01T06:09:39;57.28;;;30.05;;
52816;SDS011;38687;43.330;21.924;2023-02-01T06:12:04;64.65;;;33.85;;
52816;SDS011;38687;43.330;21.924;2023-02-01T06:14:30;49.88;;;27.88;;
52816;SDS011;38687;43.330;21.924;2023-02-01T06:16:55;48.72;;;27.40;;
52816;SDS011;38687;43.330;21.924;2023-02-01T06:19:22;52.05;;;27.85;;
52816;SDS011;38687;43.330;21.924;2023-02-01T06:21:47;59.95;;;31.98;;
52816;SDS011;38687;43.330;21.924;2023-02-01T06:24:12;62.53;;;31.48;;
52816;SDS011;38687;43.330;21.924;2023-02-01T06:26:38;71.85;;;40.45;;
52816;SDS011;38687;43.330;21.924;2023-02-01T06:29:04;96.50;;;42.60;;
52816;SDS011;38687;43.330;21.924;2023-02-01T06:31:31;101.90;;;47.97;;
52816;SDS011;38687;43.330;21.924;2023-02-01T06:33:57;96.40;;;50.75;;
52816;SDS011;38687;43.330;21.924;2023-02-01T06:36:22;110.75;;;56.70;;
52816;SDS011;38687;43.330;21.924;2023-02-01T06:38:53;129.98;;;67.25;;
52816;SDS011;38687;43.330;21.924;2023-02-01T06:41:21;121.30;;;66.20;;
52816;SDS011;38687;43.330;21.924;2023-02-01T06:43:46;831.13;;;508.60;;
52816;SDS011;38687;43.330;21.924;2023-02-01T06:46:12;483.25;;;276.88;;
52816;SDS011;38687;43.330;21.924;2023-02-01T06:48:37;258.77;;;134.90;;
52816;SDS011;38687;43.330;21.924;2023-02-01T06:51:03;164.07;;;83.47;;
52816;SDS011;38687;43.330;21.924;2023-02-01T06:53:28;61.40;;;38.15;;
52816;SDS011;38687;43.330;21.924;2023-02-01T06:55:54;83.93;;;47.35;;
52816;SDS011;38687;43.330;21.924;2023-02-01T06:58:20;101.35;;;51.47;;
52816;SDS011;38687;43.330;21.924;2023-02-01T07:00:45;127.97;;;61.78;;
52816;SDS011;38687;43.330;21.924;2023-02-01T07:03:10;176.57;;;83.00;;
52816;SDS011;38687;43.330;21.924;2023-02-01T07:05:36;73.10;;;41.75;;
52816;SDS011;38687;43.330;21.924;2023-02-01T07:08:02;71.53;;;43.03;;
52816;SDS011;38687;43.330;21.924;2023-02-01T07:10:28;57.95;;;36.33;;
52816;SDS011;38687;43.330;21.924;2023-02-01T07:12:56;57.60;;;35.47;;
52816;SDS011;38687;43.330;21.924;2023-02-01T07:15:21;50.92;;;29.88;;
52816;SDS011;38687;43.330;21.924;2023-02-01T07:17:46;86.70;;;49.03;;
52816;SDS011;38687;43.330;21.924;2023-02-01T07:20:14;72.00;;;42.65;;
52816;SDS011;38687;43.330;21.924;2023-02-01T07:22:39;86.70;;;52.17;;
52816;SDS011;38687;43.330;21.924;2023-02-01T07:25:04;99.77;;;54.40;;
52816;SDS011;38687;43.330;21.924;2023-02-01T07:27:30;122.00;;;65.90;;
52816;SDS011;38687;43.330;21.924;2023-02-01T07:29:58;119.45;;;65.63;;
52816;SDS011;38687;43.330;21.924;2023-02-01T07:32:26;112.15;;;61.78;;
52816;SDS011;38687;43.330;21.924;2023-02-01T07:34:52;103.65;;;55.20;;
52816;SDS011;38687;43.330;21.924;2023-02-01T07:37:17;134.38;;;70.45;;
52816;SDS011;38687;43.330;21.924;2023-02-01T07:39:43;103.60;;;54.03;;
52816;SDS011;38687;43.330;21.924;2023-02-01T07:42:08;77.57;;;43.90;;
52816;SDS011;38687;43.330;21.924;2023-02-01T07:44:34;73.03;;;45.22;;
52816;SDS011;38687;43.330;21.924;2023-02-01T07:46:59;82.60;;;48.75;;
52816;SDS011;38687;43.330;21.924;2023-02-01T07:49:24;87.40;;;45.85;;
52816;SDS011;38687;43.330;21.924;2023-02-01T07:51:49;110.38;;;64.15;;
52816;SDS011;38687;43.330;21.924;2023-02-01T07:54:15;92.73;;;52.13;;
52816;SDS011;38687;43.330;21.924;2023-02-01T07:56:40;138.73;;;65.75;;
52816;SDS011;38687;43.330;21.924;2023-02-01T07:59:06;76.28;;;39.28;;
52816;SDS011;38687;43.330;21.924;2023-02-01T08:01:33;73.13;;;41.00;;
52816;SDS011;38687;43.330;21.924;2023-02-01T08:04:01;65.90;;;38.85;;
52816;SDS011;38687;43.330;21.924;2023-02-01T08:06:30;72.28;;;42.72;;
52816;SDS011;38687;43.330;21.924;2023-02-01T08:08:56;87.18;;;46.45;;
52816;SDS011;38687;43.330;21.924;2023-02-01T08:11:22;50.22;;;28.30;;
52816;SDS011;38687;43.330;21.924;2023-02-01T08:13:47;54.67;;;32.90;;
52816;SDS011;38687;43.330;21.924;2023-02-01T08:16:14;62.72;;;37.63;;
52816;SDS011;38687;43.330;21.924;2023-02-01T08:18:39;68.78;;;38.70;;
52816;SDS011;38687;43.330;21.924;2023-02-01T08:21:06;14.43;;;9.93;;
52816;SDS011;38687;43.330;21.924;2023-02-01T08:23:32;36.15;;;20.80;;
52816;SDS011;38687;43.330;21.924;2023-02-01T08:26:11;15.07;;;10.07;;
52816;SDS011;38687;43.330;21.924;2023-02-01T08:28:37;14.32;;;7.75;;
52816;SDS011;38687;43.330;21.924;2023-02-01T08:31:11;16.08;;;9.23;;
52816;SDS011;38687;43.330;21.924;2023-02-01T08:33:36;16.38;;;9.38;;
52816;SDS011;38687;43.330;21.924;2023-02-01T08:36:05;19.88;;;12.73;;
52816;SDS011;38687;43.330;21.924;2023-02-01T08:38:30;27.50;;;15.35;;
52816;SDS011;38687;43.330;21.924;2023-02-01T08:40:55;22.20;;;12.50;;
52816;SDS011;38687;43.330;21.924;2023-02-01T08:43:21;12.45;;;8.15;;
52816;SDS011;38687;43.330;21.924;2023-02-01T08:45:49;14.13;;;9.25;;
52816;SDS011;38687;43.330;21.924;2023-02-01T08:48:15;28.83;;;18.77;;
52816;SDS011;38687;43.330;21.924;2023-02-01T08:50:40;40.08;;;24.88;;
52816;SDS011;38687;43.330;21.924;2023-02-01T08:53:05;53.22;;;31.63;;
52816;SDS011;38687;43.330;21.924;2023-02-01T08:55:31;50.42;;;28.90;;
52816;SDS011;38687;43.330;21.924;2023-02-01T08:57:56;42.22;;;27.08;;
52816;SDS011;38687;43.330;21.924;2023-02-01T09:00:21;45.85;;;28.15;;
52816;SDS011;38687;43.330;21.924;2023-02-01T09:02:47;49.88;;;28.88;;
52816;SDS011;38687;43.330;21.924;2023-02-01T09:05:12;42.13;;;24.30;;
52816;SDS011;38687;43.330;21.924;2023-02-01T09:07:38;44.90;;;25.02;;
52816;SDS011;38687;43.330;21.924;2023-02-01T09:10:04;95.55;;;47.20;;
52816;SDS011;38687;43.330;21.924;2023-02-01T09:12:31;41.88;;;23.45;;
52816;SDS011;38687;43.330;21.924;2023-02-01T09:14:57;78.55;;;42.42;;
52816;SDS011;38687;43.330;21.924;2023-02-01T09:17:24;40.75;;;24.10;;
52816;SDS011;38687;43.330;21.924;2023-02-01T09:19:49;68.05;;;40.92;;
52816;SDS011;38687;43.330;21.924;2023-02-01T09:22:16;81.00;;;47.30;;
52816;SDS011;38687;43.330;21.924;2023-02-01T09:24:42;73.53;;;42.53;;
52816;SDS011;38687;43.330;21.924;2023-02-01T09:27:08;58.80;;;35.83;;
52816;SDS011;38687;43.330;21.924;2023-02-01T09:29:33;42.03;;;26.00;;
52816;SDS011;38687;43.330;21.924;2023-02-01T09:31:59;45.60;;;28.97;;
52816;SDS011;38687;43.330;21.924;2023-02-01T09:34:24;60.47;;;38.90;;
52816;SDS011;38687;43.330;21.924;2023-02-01T09:36:49;27.42;;;17.00;;
52816;SDS011;38687;43.330;21.924;2023-02-01T09:39:15;65.93;;;34.88;;
52816;SDS011;38687;43.330;21.924;2023-02-01T09:46:39;27.55;;;18.10;;
52816;SDS011;38687;43.330;21.924;2023-02-01T09:49:08;28.80;;;17.35;;
52816;SDS011;38687;43.330;21.924;2023-02-01T09:51:36;35.40;;;18.92;;
52816;SDS011;38687;43.330;21.924;2023-02-01T09:56:30;23.40;;;16.23;;
52816;SDS011;38687;43.330;21.924;2023-02-01T09:59:00;30.00;;;18.13;;
52816;SDS011;38687;43.330;21.924;2023-02-01T10:01:26;36.50;;;22.05;;
52816;SDS011;38687;43.330;21.924;2023-02-01T10:03:53;23.63;;;17.17;;
52816;SDS011;38687;43.330;21.924;2023-02-01T10:08:58;25.20;;;16.33;;
52816;SDS011;38687;43.330;21.924;2023-02-01T10:17:03;22.27;;;15.93;;
52816;SDS011;38687;43.330;21.924;2023-02-01T10:24:58;22.15;;;15.50;;
52816;SDS011;38687;43.330;21.924;2023-02-01T10:27:30;31.42;;;18.30;;
52816;SDS011;38687;43.330;21.924;2023-02-01T10:29:59;32.78;;;21.30;;
52816;SDS011;38687;43.330;21.924;2023-02-01T10:35:42;37.67;;;23.58;;
52816;SDS011;38687;43.330;21.924;2023-02-01T10:38:42;33.45;;;23.13;;
52816;SDS011;38687;43.330;21.924;2023-02-01T10:41:01;32.55;;;23.38;;
52816;SDS011;38687;43.330;21.924;2023-02-01T10:43:27;32.90;;;21.70;;
52816;SDS011;38687;43.330;21.924;2023-02-01T10:45:53;32.25;;;21.27;;
52816;SDS011;38687;43.330;21.924;2023-02-01T10:48:18;35.22;;;23.00;;
52816;SDS011;38687;43.330;21.924;2023-02-01T10:53:19;34.45;;;19.50;;
52816;SDS011;38687;43.330;21.924;2023-02-01T10:55:50;30.80;;;20.15;;
52816;SDS011;38687;43.330;21.924;2023-02-01T10:58:20;30.23;;;20.20;;
52816;SDS011;38687;43.330;21.924;2023-02-01T11:00:52;33.28;;;21.48;;
52816;SDS011;38687;43.330;21.924;2023-02-01T11:03:27;33.65;;;22.05;;
52816;SDS011;38687;43.330;21.924;2023-02-01T11:05:55;37.17;;;22.27;;
52816;SDS011;38687;43.330;21.924;2023-02-01T11:08:20;31.20;;;21.52;;
52816;SDS011;38687;43.330;21.924;2023-02-01T11:10:46;30.25;;;22.27;;
52816;SDS011;38687;43.330;21.924;2023-02-01T11:13:15;35.65;;;23.38;;
52816;SDS011;38687;43.330;21.924;2023-02-01T11:15:44;39.60;;;23.63;;
52816;SDS011;38687;43.330;21.924;2023-02-01T11:18:17;24.45;;;17.05;;
52816;SDS011;38687;43.330;21.924;2023-02-01T11:20:43;32.45;;;20.63;;
52816;SDS011;38687;43.330;21.924;2023-02-01T11:23:16;39.92;;;22.75;;
52816;SDS011;38687;43.330;21.924;2023-02-01T11:26:20;27.48;;;19.10;;
52816;SDS011;38687;43.330;21.924;2023-02-01T11:28:34;36.17;;;20.73;;
52816;SDS011;38687;43.330;21.924;2023-02-01T11:31:05;26.40;;;18.00;;
52816;SDS011;38687;43.330;21.924;2023-02-01T11:33:33;30.90;;;18.60;;
52816;SDS011;38687;43.330;21.924;2023-02-01T11:36:02;26.35;;;17.73;;
52816;SDS011;38687;43.330;21.924;2023-02-01T11:38:33;25.00;;;16.90;;
52816;SDS011;38687;43.330;21.924;2023-02-01T11:41:17;25.27;;;17.00;;
52816;SDS011;38687;43.330;21.924;2023-02-01T11:43:56;27.25;;;18.27;;
52816;SDS011;38687;43.330;21.924;2023-02-01T11:46:23;28.15;;;18.00;;
52816;SDS011;38687;43.330;21.924;2023-02-01T11:48:50;27.77;;;18.38;;
52816;SDS011;38687;43.330;21.924;2023-02-01T12:16:41;19.02;;;11.50;;
52816;SDS011;38687;43.330;21.924;2023-02-01T12:32:05;6.82;;;3.80;;
52816;SDS011;38687;43.330;21.924;2023-02-01T12:39:39;3.80;;;3.03;;
52816;SDS011;38687;43.330;21.924;2023-02-01T12:42:16;5.50;;;4.47;;
52816;SDS011;38687;43.330;21.924;2023-02-01T12:49:54;5.57;;;3.70;;
52816;SDS011;38687;43.330;21.924;2023-02-01T12:52:23;12.82;;;3.40;;
52816;SDS011;38687;43.330;21.924;2023-02-01T12:54:58;14.38;;;7.75;;
52816;SDS011;38687;43.330;21.924;2023-02-01T12:57:28;12.45;;;6.88;;
52816;SDS011;38687;43.330;21.924;2023-02-01T13:02:41;10.48;;;6.80;;
52816;SDS011;38687;43.330;21.924;2023-02-01T13:10:57;13.13;;;7.22;;
52816;SDS011;38687;43.330;21.924;2023-02-01T13:16:26;14.50;;;8.15;;
52816;SDS011;38687;43.330;21.924;2023-02-01T13:18:55;10.40;;;7.57;;
52816;SDS011;38687;43.330;21.924;2023-02-01T13:21:26;13.43;;;7.88;;
52816;SDS011;38687;43.330;21.924;2023-02-01T13:24:00;11.90;;;8.35;;
52816;SDS011;38687;43.330;21.924;2023-02-01T13:26:33;9.55;;;7.28;;
52816;SDS011;38687;43.330;21.924;2023-02-01T13:28:59;11.05;;;7.07;;
52816;SDS011;38687;43.330;21.924;2023-02-01T13:33:59;15.40;;;9.57;;
52816;SDS011;38687;43.330;21.924;2023-02-01T13:36:48;11.50;;;8.20;;
52816;SDS011;38687;43.330;21.924;2023-02-01T13:42:02;17.45;;;9.80;;
52816;SDS011;38687;43.330;21.924;2023-02-01T13:44:29;17.75;;;11.48;;
52816;SDS011;38687;43.330;21.924;2023-02-01T13:46:57;8.07;;;4.72;;
52816;SDS011;38687;43.330;21.924;2023-02-01T13:49:25;12.05;;;7.40;;
52816;SDS011;38687;43.330;21.924;2023-02-01T13:51:52;5.32;;;2.88;;
52816;SDS011;38687;43.330;21.924;2023-02-01T13:54:25;11.95;;;8.73;;
52816;SDS011;38687;43.330;21.924;2023-02-01T13:56:53;13.02;;;6.20;;
52816;SDS011;38687;43.330;21.924;2023-02-01T14:04:48;23.20;;;12.60;;
52816;SDS011;38687;43.330;21.924;2023-02-01T14:07:17;12.30;;;6.38;;
52816;SDS011;38687;43.330;21.924;2023-02-01T14:09:43;16.55;;;8.68;;
52816;SDS011;38687;43.330;21.924;2023-02-01T14:14:52;68.93;;;37.90;;
52816;SDS011;38687;43.330;21.924;2023-02-01T14:17:37;14.93;;;9.57;;
52816;SDS011;38687;43.330;21.924;2023-02-01T14:22:48;31.15;;;19.15;;
52816;SDS011;38687;43.330;21.924;2023-02-01T14:25:16;24.80;;;20.90;;
52816;SDS011;38687;43.330;21.924;2023-02-01T14:27:43;23.42;;;15.00;;
52816;SDS011;38687;43.330;21.924;2023-02-01T14:30:11;15.10;;;8.48;;
52816;SDS011;38687;43.330;21.924;2023-02-01T14:32:40;14.00;;;8.98;;
52816;SDS011;38687;43.330;21.924;2023-02-01T14:35:18;17.65;;;9.60;;
52816;SDS011;38687;43.330;21.924;2023-02-01T14:37:45;18.13;;;10.55;;
52816;SDS011;38687;43.330;21.924;2023-02-01T14:52:50;19.95;;;12.07;;
52816;SDS011;38687;43.330;21.924;2023-02-01T14:55:17;23.13;;;15.35;;
52816;SDS011;38687;43.330;21.924;2023-02-01T14:57:49;23.27;;;13.90;;
52816;SDS011;38687;43.330;21.924;2023-02-01T15:00:22;17.98;;;11.98;;
52816;SDS011;38687;43.330;21.924;2023-02-01T15:02:50;22.43;;;12.23;;
52816;SDS011;38687;43.330;21.924;2023-02-01T15:05:24;21.27;;;11.98;;
52816;SDS011;38687;43.330;21.924;2023-02-01T15:07:50;26.42;;;13.27;;
52816;SDS011;38687;43.330;21.924;2023-02-01T15:10:16;25.40;;;13.90;;
52816;SDS011;38687;43.330;21.924;2023-02-01T15:12:42;24.88;;;13.15;;
52816;SDS011;38687;43.330;21.924;2023-02-01T15:15:11;23.48;;;13.32;;
52816;SDS011;38687;43.330;21.924;2023-02-01T15:17:36;36.45;;;18.20;;
52816;SDS011;38687;43.330;21.924;2023-02-01T15:20:13;33.30;;;16.88;;
52816;SDS011;38687;43.330;21.924;2023-02-01T15:22:39;40.90;;;19.75;;
52816;SDS011;38687;43.330;21.924;2023-02-01T15:25:04;42.03;;;22.13;;
52816;SDS011;38687;43.330;21.924;2023-02-01T15:27:37;38.33;;;22.40;;
52816;SDS011;38687;43.330;21.924;2023-02-01T15:30:06;45.40;;;24.85;;
52816;SDS011;38687;43.330;21.924;2023-02-01T15:32:36;56.25;;;29.88;;
52816;SDS011;38687;43.330;21.924;2023-02-01T15:35:03;44.70;;;25.40;;
52816;SDS011;38687;43.330;21.924;2023-02-01T15:37:29;37.33;;;19.00;;
52816;SDS011;38687;43.330;21.924;2023-02-01T15:40:18;52.40;;;26.95;;
52816;SDS011;38687;43.330;21.924;2023-02-01T15:42:53;37.38;;;22.23;;
52816;SDS011;38687;43.330;21.924;2023-02-01T15:45:20;46.75;;;26.65;;
52816;SDS011;38687;43.330;21.924;2023-02-01T15:47:46;49.05;;;26.38;;
52816;SDS011;38687;43.330;21.924;2023-02-01T15:50:15;44.20;;;29.48;;
52816;SDS011;38687;43.330;21.924;2023-02-01T15:52:41;52.72;;;31.58;;
52816;SDS011;38687;43.330;21.924;2023-02-01T15:57:47;45.88;;;27.20;;
52816;SDS011;38687;43.330;21.924;2023-02-01T16:00:30;59.03;;;34.17;;
52816;SDS011;38687;43.330;21.924;2023-02-01T16:02:59;54.17;;;32.65;;
52816;SDS011;38687;43.330;21.924;2023-02-01T16:05:40;79.18;;;47.03;;
52816;SDS011;38687;43.330;21.924;2023-02-01T16:08:15;124.55;;;75.35;;
52816;SDS011;38687;43.330;21.924;2023-02-01T16:10:41;137.85;;;81.45;;
52816;SDS011;38687;43.330;21.924;2023-02-01T16:13:09;102.40;;;59.72;;
52816;SDS011;38687;43.330;21.924;2023-02-01T16:15:35;104.60;;;57.28;;
52816;SDS011;38687;43.330;21.924;2023-02-01T16:18:09;87.93;;;47.08;;
52816;SDS011;38687;43.330;21.924;2023-02-01T16:20:36;87.63;;;48.92;;
52816;SDS011;38687;43.330;21.924;2023-02-01T16:23:02;94.47;;;51.90;;
52816;SDS011;38687;43.330;21.924;2023-02-01T16:25:27;95.80;;;53.35;;
52816;SDS011;38687;43.330;21.924;2023-02-01T16:27:53;80.30;;;45.20;;
52816;SDS011;38687;43.330;21.924;2023-02-01T16:30:18;77.45;;;45.60;;
52816;SDS011;38687;43.330;21.924;2023-02-01T16:32:48;78.85;;;51.13;;
52816;SDS011;38687;43.330;21.924;2023-02-01T16:35:35;100.93;;;60.55;;
52816;SDS011;38687;43.330;21.924;2023-02-01T16:38:12;99.55;;;55.70;;